createdAt,value
2023-04-26T00:00:40.053Z,62.13
2023-04-26T00:01:39.949Z,62.12
2023-04-26T00:02:39.998Z,62.16
2023-04-26T00:03:40.097Z,62.20
2023-04-26T00:04:40.065Z,62.09
2023-04-26T00:05:39.984Z,61.95
2023-04-26T00:06:39.898Z,61.88
2023-04-26T00:07:39.878Z,62.01
2023-04-26T00:08:39.887Z,62.00
2023-04-26T00:09:39.862Z,61.95
2023-04-26T00:10:39.864Z,62.09
2023-04-26T00:11:39.846Z,62.20
2023-04-26T00:12:39.864Z,62.28
2023-04-26T00:13:39.836Z,62.27
2023-04-26T00:14:39.810Z,62.33
2023-04-26T00:15:39.825Z,62.49
2023-04-26T00:16:39.853Z,62.52
2023-04-26T00:17:39.792Z,62.49
2023-04-26T00:18:39.772Z,62.38
2023-04-26T00:19:39.807Z,62.26
2023-04-26T00:20:39.766Z,62.20
2023-04-26T00:21:39.745Z,62.28
2023-04-26T00:22:39.770Z,62.36
2023-04-26T00:23:39.775Z,62.61
2023-04-26T00:24:39.708Z,62.49
2023-04-26T00:25:39.700Z,62.37
2023-04-26T00:26:39.688Z,62.37
2023-04-26T00:27:39.703Z,62.39
2023-04-26T00:28:39.671Z,62.40
2023-04-26T00:29:39.655Z,62.38
2023-04-26T00:30:39.690Z,62.36
2023-04-26T00:31:39.640Z,62.29
2023-04-26T00:32:39.714Z,62.18
2023-04-26T00:33:39.605Z,62.06
2023-04-26T00:34:39.661Z,62.06
2023-04-26T00:35:39.612Z,62.02
2023-04-26T00:36:39.575Z,62.01
2023-04-26T00:37:39.582Z,62.02
2023-04-26T00:38:39.555Z,62.08
2023-04-26T00:39:39.581Z,62.05
2023-04-26T00:40:39.556Z,62.21
2023-04-26T00:41:39.519Z,62.23
2023-04-26T00:42:39.524Z,62.33
2023-04-26T00:43:39.517Z,62.49
2023-04-26T00:44:39.494Z,62.40
2023-04-26T00:45:39.548Z,62.44
2023-04-26T00:46:39.498Z,62.62
2023-04-26T00:47:39.538Z,62.71
2023-04-26T00:48:39.441Z,62.82
2023-04-26T00:49:39.484Z,62.92
2023-04-26T00:50:39.469Z,63.03
2023-04-26T00:51:39.407Z,62.97
2023-04-26T00:52:39.469Z,62.91
2023-04-26T00:53:39.401Z,62.87
2023-04-26T00:54:39.388Z,62.92
2023-04-26T00:55:39.461Z,62.89
2023-04-26T00:56:39.374Z,62.86
2023-04-26T00:57:39.358Z,62.86
2023-04-26T00:58:39.369Z,62.84
2023-04-26T00:59:39.334Z,62.94
2023-04-26T01:00:39.343Z,62.99
2023-04-26T01:01:39.464Z,62.89
2023-04-26T01:02:39.473Z,62.90
2023-04-26T01:03:39.387Z,62.98
2023-04-26T01:04:39.328Z,62.93
2023-04-26T01:05:39.275Z,62.94
2023-04-26T01:06:39.245Z,63.00
2023-04-26T01:07:39.265Z,62.92
2023-04-26T01:08:39.228Z,62.82
2023-04-26T01:09:39.216Z,63.04
2023-04-26T01:10:39.272Z,63.07
2023-04-26T01:11:39.220Z,63.15
2023-04-26T01:12:39.199Z,63.18
2023-04-26T01:13:39.211Z,63.21
2023-04-26T01:14:39.161Z,63.26
2023-04-26T01:15:39.161Z,63.29
2023-04-26T01:16:39.245Z,63.24
2023-04-26T01:17:39.149Z,63.21
2023-04-26T01:18:39.118Z,63.38
2023-04-26T01:19:39.150Z,63.42
2023-04-26T01:20:39.101Z,63.43
2023-04-26T01:21:39.111Z,63.93
2023-04-26T01:22:39.093Z,64.21
2023-04-26T01:23:39.082Z,64.11
2023-04-26T01:24:39.072Z,64.03
2023-04-26T01:25:39.084Z,64.16
2023-04-26T01:26:39.084Z,64.22
2023-04-26T01:27:39.057Z,64.43
2023-04-26T01:28:39.024Z,64.62
2023-04-26T01:29:39.008Z,64.74
2023-04-26T01:30:39.038Z,64.85
2023-04-26T01:31:39.018Z,64.73
2023-04-26T01:32:39.046Z,64.68
2023-04-26T01:33:38.954Z,64.69
2023-04-26T01:34:38.949Z,64.54
2023-04-26T01:35:39.005Z,64.55
2023-04-26T01:36:38.981Z,64.63
2023-04-26T01:37:38.920Z,64.77
2023-04-26T01:38:38.926Z,64.85
2023-04-26T01:39:38.900Z,64.78
2023-04-26T01:40:38.889Z,64.88
2023-04-26T01:41:38.915Z,64.88
2023-04-26T01:42:38.860Z,64.87
2023-04-26T01:43:38.849Z,64.79
2023-04-26T01:44:38.833Z,64.78
2023-04-26T01:45:38.845Z,64.86
2023-04-26T01:46:38.979Z,64.93
2023-04-26T01:47:38.877Z,64.97
2023-04-26T01:48:38.795Z,64.86
2023-04-26T01:49:38.820Z,65.09
2023-04-26T01:50:38.797Z,65.41
2023-04-26T01:51:38.778Z,65.51
2023-04-26T01:52:38.770Z,65.58
2023-04-26T01:53:38.755Z,65.49
2023-04-26T01:54:38.736Z,65.41
2023-04-26T01:55:38.726Z,65.43
2023-04-26T01:56:38.721Z,65.63
2023-04-26T01:57:38.740Z,65.76
2023-04-26T01:58:38.678Z,66.07
2023-04-26T01:59:38.688Z,66.36
2023-04-26T02:00:38.663Z,66.36
2023-04-26T02:01:38.791Z,66.22
2023-04-26T02:02:38.687Z,66.11
2023-04-26T02:03:38.715Z,66.18
2023-04-26T02:04:38.697Z,66.39
2023-04-26T02:05:38.606Z,66.56
2023-04-26T02:06:38.614Z,66.71
2023-04-26T02:07:38.660Z,66.89
2023-04-26T02:08:38.578Z,67.02
2023-04-26T02:09:38.571Z,66.87
2023-04-26T02:10:38.596Z,66.71
2023-04-26T02:11:38.557Z,66.56
2023-04-26T02:12:38.569Z,66.57
2023-04-26T02:13:38.561Z,66.43
2023-04-26T02:14:38.514Z,66.34
2023-04-26T02:15:38.538Z,66.20
2023-04-26T02:16:38.713Z,66.12
2023-04-26T02:17:38.594Z,66.36
2023-04-26T02:18:38.474Z,66.44
2023-04-26T02:19:38.490Z,66.38
2023-04-26T02:20:38.468Z,66.37
2023-04-26T02:21:38.467Z,66.33
2023-04-26T02:22:38.456Z,66.29
2023-04-26T02:23:38.419Z,66.27
2023-04-26T02:24:38.413Z,66.39
2023-04-26T02:25:38.406Z,66.41
2023-04-26T02:26:38.453Z,66.51
2023-04-26T02:27:38.382Z,66.65
2023-04-26T02:28:38.366Z,66.74
2023-04-26T02:29:44.322Z,66.74
2023-04-26T02:30:39.356Z,66.68
2023-04-26T02:31:38.403Z,66.51
2023-04-26T02:32:38.361Z,66.54
2023-04-26T02:33:38.339Z,66.65
2023-04-26T02:34:38.332Z,66.80
2023-04-26T02:35:38.294Z,66.95
2023-04-26T02:36:38.332Z,67.01
2023-04-26T02:37:38.279Z,66.98
2023-04-26T02:38:38.271Z,67.06
2023-04-26T02:39:38.281Z,67.22
2023-04-26T02:40:38.248Z,67.38
2023-04-26T02:41:38.250Z,67.50
2023-04-26T02:42:38.266Z,67.56
2023-04-26T02:43:38.214Z,67.52
2023-04-26T02:44:38.194Z,67.58
2023-04-26T02:45:38.220Z,67.67
2023-04-26T02:46:38.264Z,67.62
2023-04-26T02:49:16.213Z,67.30
2023-04-26T02:50:16.227Z,67.21
2023-04-26T02:51:16.187Z,67.26
2023-04-26T02:52:16.196Z,67.18
2023-04-26T02:53:16.171Z,67.19
2023-04-26T02:54:16.177Z,67.18
2023-04-26T02:55:16.156Z,67.04
2023-04-26T02:56:16.136Z,66.97
2023-04-26T02:57:16.143Z,66.90
2023-04-26T02:58:16.119Z,66.99
2023-04-26T02:59:16.142Z,67.07
2023-04-26T03:00:16.089Z,66.99
2023-04-26T03:01:16.117Z,66.96
2023-04-26T03:02:16.142Z,66.90
2023-04-26T03:03:16.221Z,67.00
2023-04-26T03:04:16.322Z,66.88
2023-04-26T03:05:16.143Z,66.72
2023-04-26T03:06:16.034Z,66.62
2023-04-26T03:07:16.030Z,66.68
2023-04-26T03:08:16.004Z,66.59
2023-04-26T03:09:16.008Z,66.43
2023-04-26T03:10:15.982Z,66.45
2023-04-26T03:11:15.995Z,66.40
2023-04-26T03:12:16.008Z,66.37
2023-04-26T03:13:15.949Z,66.40
2023-04-26T03:14:15.951Z,66.41
2023-04-26T03:15:15.934Z,66.36
2023-04-26T03:16:15.983Z,66.28
2023-04-26T03:17:15.922Z,66.22
2023-04-26T03:18:15.901Z,66.23
2023-04-26T03:19:15.894Z,66.30
2023-04-26T03:20:15.893Z,66.32
2023-04-26T03:21:15.865Z,66.51
2023-04-26T03:22:15.878Z,66.63
2023-04-26T03:23:15.841Z,66.73
2023-04-26T03:24:15.834Z,66.79
2023-04-26T03:25:15.823Z,66.85
2023-04-26T03:26:15.837Z,67.06
2023-04-26T03:27:15.844Z,67.28
2023-04-26T03:28:15.797Z,67.43
2023-04-26T03:29:15.785Z,67.38
2023-04-26T03:30:15.801Z,67.34
2023-04-26T03:31:15.775Z,67.35
2023-04-26T03:32:15.887Z,67.49
2023-04-26T03:33:15.759Z,67.72
2023-04-26T03:34:15.747Z,67.92
2023-04-26T03:35:15.725Z,68.04
2023-04-26T03:36:15.713Z,68.15
2023-04-26T03:37:15.735Z,68.24
2023-04-26T03:38:15.690Z,68.33
2023-04-26T03:39:15.681Z,68.45
2023-04-26T03:40:15.674Z,68.36
2023-04-26T03:41:15.664Z,68.50
2023-04-26T03:42:15.677Z,68.50
2023-04-26T03:43:15.639Z,68.61
2023-04-26T03:44:15.638Z,68.57
2023-04-26T03:45:15.612Z,68.43
2023-04-26T03:46:15.657Z,68.36
2023-04-26T03:47:15.643Z,68.45
2023-04-26T03:48:15.582Z,68.51
2023-04-26T03:49:15.586Z,68.47
2023-04-26T03:50:15.584Z,68.52
2023-04-26T03:51:15.538Z,68.46
2023-04-26T03:52:15.557Z,68.43
2023-04-26T03:53:15.538Z,68.28
2023-04-26T03:54:15.513Z,68.10
2023-04-26T03:55:15.499Z,68.00
2023-04-26T03:56:15.505Z,68.02
2023-04-26T03:57:15.497Z,68.03
2023-04-26T03:58:15.464Z,68.07
2023-04-26T03:59:15.484Z,68.26
2023-04-26T04:00:15.445Z,68.29
2023-04-26T04:01:15.436Z,68.41
2023-04-26T04:02:15.525Z,68.37
2023-04-26T04:03:15.592Z,68.33
2023-04-26T04:04:15.586Z,68.33
2023-04-26T04:05:15.513Z,68.42
2023-04-26T04:06:15.384Z,68.57
2023-04-26T04:07:15.457Z,68.72
2023-04-26T04:08:15.362Z,69.03
2023-04-26T04:09:15.380Z,69.44
2023-04-26T04:10:15.334Z,69.50
2023-04-26T04:11:16.731Z,69.50
2023-04-26T04:12:15.360Z,69.53
2023-04-26T04:13:15.303Z,69.51
2023-04-26T04:14:15.297Z,69.45
2023-04-26T04:15:15.304Z,69.48
2023-04-26T04:16:15.308Z,69.41
2023-04-26T04:17:15.293Z,69.33
2023-04-26T04:18:15.299Z,69.30
2023-04-26T04:19:15.227Z,69.40
2023-04-26T04:20:15.228Z,69.50
2023-04-26T04:21:15.502Z,69.52
2023-04-26T04:22:15.236Z,69.60
2023-04-26T04:23:15.190Z,69.63
2023-04-26T04:24:15.196Z,69.67
2023-04-26T04:25:15.190Z,69.64
2023-04-26T04:26:15.181Z,69.61
2023-04-26T04:27:15.185Z,69.60
2023-04-26T04:28:15.187Z,69.46
2023-04-26T04:29:15.128Z,69.44
2023-04-26T04:30:15.131Z,69.45
2023-04-26T04:31:15.165Z,69.47
2023-04-26T04:32:15.105Z,69.58
2023-04-26T04:33:15.108Z,69.53
2023-04-26T04:34:15.087Z,69.61
2023-04-26T04:35:15.077Z,69.65
2023-04-26T04:36:15.060Z,69.66
2023-04-26T04:37:15.070Z,69.75
2023-04-26T04:38:15.070Z,69.77
2023-04-26T04:39:15.021Z,69.82
2023-04-26T04:40:15.023Z,69.86
2023-04-26T04:41:15.017Z,69.76
2023-04-26T04:42:14.998Z,69.74
2023-04-26T04:43:15.013Z,69.70
2023-04-26T04:44:14.973Z,69.70
2023-04-26T04:45:14.961Z,69.85
2023-04-26T04:46:14.989Z,69.84
2023-04-26T04:47:14.947Z,70.01
2023-04-26T04:48:14.960Z,70.18
2023-04-26T04:49:14.963Z,70.39
2023-04-26T04:50:14.906Z,70.55
2023-04-26T04:51:14.909Z,70.67
2023-04-26T04:52:16.813Z,70.80
2023-04-26T04:53:14.879Z,70.80
2023-04-26T04:54:14.906Z,70.81
2023-04-26T04:55:14.846Z,70.87
2023-04-26T04:56:14.837Z,70.94
2023-04-26T04:57:14.875Z,70.98
2023-04-26T04:58:14.843Z,71.00
2023-04-26T04:59:14.819Z,71.06
2023-04-26T05:00:14.816Z,71.07
2023-04-26T05:01:14.785Z,71.10
2023-04-26T05:02:14.910Z,71.04
2023-04-26T05:03:15.008Z,71.04
2023-04-26T05:04:14.906Z,70.99
2023-04-26T05:05:14.797Z,70.95
2023-04-26T05:06:14.754Z,70.91
2023-04-26T05:07:14.719Z,70.86
2023-04-26T05:08:14.717Z,70.89
2023-04-26T05:09:14.756Z,70.91
2023-04-26T05:10:14.702Z,70.89
2023-04-26T05:11:14.673Z,70.86
2023-04-26T05:12:14.672Z,70.88
2023-04-26T05:13:14.667Z,70.92
2023-04-26T05:14:14.670Z,70.94
2023-04-26T05:15:14.668Z,70.87
2023-04-26T05:16:14.710Z,70.91
2023-04-26T05:17:14.613Z,70.84
2023-04-26T05:18:14.610Z,70.77
2023-04-26T05:19:14.605Z,70.63
2023-04-26T05:20:14.602Z,70.56
2023-04-26T05:21:14.570Z,70.74
2023-04-26T05:22:14.578Z,70.70
2023-04-26T05:23:14.573Z,70.58
2023-04-26T05:24:14.538Z,70.63
2023-04-26T05:25:14.565Z,70.54
2023-04-26T05:26:14.528Z,70.39
2023-04-26T05:27:14.597Z,70.28
2023-04-26T05:28:14.565Z,70.32
2023-04-26T05:29:14.508Z,70.28
2023-04-26T05:30:14.503Z,70.27
2023-04-26T05:31:14.533Z,70.15
2023-04-26T05:32:14.472Z,69.99
2023-04-26T05:33:14.543Z,69.96
2023-04-26T05:34:14.444Z,69.90
2023-04-26T05:35:14.494Z,69.96
2023-04-26T05:36:14.440Z,70.06
2023-04-26T05:37:14.398Z,69.80
2023-04-26T05:38:14.419Z,69.91
2023-04-26T05:39:14.389Z,69.91
2023-04-26T05:40:14.379Z,69.82
2023-04-26T05:41:14.378Z,69.92
2023-04-26T05:42:16.344Z,69.82
2023-04-26T05:43:14.343Z,69.52
2023-04-26T05:44:14.344Z,69.35
2023-04-26T05:45:14.335Z,69.52
2023-04-26T05:46:14.354Z,69.66
2023-04-26T05:47:14.300Z,69.31
2023-04-26T05:48:14.352Z,69.10
2023-04-26T05:49:14.290Z,68.94
2023-04-26T05:50:14.263Z,68.86
2023-04-26T05:51:14.272Z,68.98
2023-04-26T05:52:14.250Z,68.78
2023-04-26T05:53:14.231Z,68.65
2023-04-26T05:54:14.230Z,68.62
2023-04-26T05:55:14.219Z,68.69
2023-04-26T05:56:14.223Z,68.50
2023-04-26T05:57:14.282Z,68.49
2023-04-26T05:58:14.200Z,68.30
2023-04-26T05:59:14.168Z,68.07
2023-04-26T06:00:14.156Z,67.89
2023-04-26T06:01:14.183Z,67.74
2023-04-26T06:02:14.239Z,67.52
2023-04-26T06:03:14.356Z,67.29
2023-04-26T06:04:14.182Z,67.27
2023-04-26T06:05:14.392Z,67.33
2023-04-26T06:06:14.133Z,67.07
2023-04-26T06:07:14.085Z,66.84
2023-04-26T06:08:14.090Z,66.73
2023-04-26T06:09:14.074Z,66.69
2023-04-26T06:10:14.070Z,66.70
2023-04-26T06:11:14.048Z,66.71
2023-04-26T06:12:14.042Z,66.71
2023-04-26T06:13:14.022Z,66.71
2023-04-26T06:14:26.948Z,66.60
2023-04-26T06:15:14.989Z,66.41
2023-04-26T06:16:14.020Z,66.32
2023-04-26T06:17:14.144Z,66.13
2023-04-26T06:18:14.050Z,66.01
2023-04-26T06:19:13.968Z,65.92
2023-04-26T06:20:13.952Z,65.82
2023-04-26T06:21:13.933Z,65.72
2023-04-26T06:22:13.928Z,65.58
2023-04-26T06:23:13.962Z,65.49
2023-04-26T06:24:13.919Z,65.44
2023-04-26T06:25:13.895Z,65.33
2023-04-26T06:26:13.874Z,65.26
2023-04-26T06:27:13.928Z,65.18
2023-04-26T06:28:13.872Z,65.14
2023-04-26T06:29:13.880Z,65.08
2023-04-26T06:30:13.864Z,64.98
2023-04-26T06:31:13.849Z,64.82
2023-04-26T06:32:13.814Z,64.73
2023-04-26T06:33:13.838Z,64.75
2023-04-26T06:34:14.526Z,64.60
2023-04-26T06:35:13.774Z,64.59
2023-04-26T06:36:13.786Z,64.60
2023-04-26T06:37:13.788Z,64.64
2023-04-26T06:38:13.847Z,64.46
2023-04-26T06:39:13.745Z,64.26
2023-04-26T06:40:13.760Z,64.15
2023-04-26T06:41:13.711Z,63.96
2023-04-26T06:42:13.710Z,63.74
2023-04-26T06:43:13.732Z,63.37
2023-04-26T06:44:13.700Z,63.39
2023-04-26T06:45:13.676Z,63.50
2023-04-26T06:46:13.733Z,63.44
2023-04-26T06:47:13.654Z,63.07
2023-04-26T06:48:13.664Z,62.99
2023-04-26T06:49:13.641Z,62.98
2023-04-26T06:50:13.628Z,62.95
2023-04-26T06:51:13.633Z,62.65
2023-04-26T06:52:13.612Z,62.37
2023-04-26T06:53:13.620Z,62.37
2023-04-26T06:54:13.575Z,62.41
2023-04-26T06:55:13.564Z,62.46
2023-04-26T06:56:13.609Z,62.26
2023-04-26T06:57:13.566Z,62.17
2023-04-26T06:58:13.534Z,61.97
2023-04-26T06:59:13.549Z,61.92
2023-04-26T07:00:13.509Z,61.48
2023-04-26T07:01:13.542Z,61.17
2023-04-26T07:02:15.711Z,60.86
2023-04-26T07:03:13.641Z,60.92
2023-04-26T07:04:13.700Z,60.95
2023-04-26T07:05:13.734Z,60.63
2023-04-26T07:06:13.456Z,60.36
2023-04-26T07:07:13.884Z,60.32
2023-04-26T07:08:13.463Z,60.27
2023-04-26T07:09:13.462Z,60.41
2023-04-26T07:10:13.409Z,59.93
2023-04-26T07:11:13.593Z,59.51
2023-04-26T07:12:13.388Z,59.50
2023-04-26T07:13:13.378Z,59.37
2023-04-26T07:14:13.365Z,58.93
2023-04-26T07:15:13.375Z,58.29
2023-04-26T07:16:13.380Z,58.40
2023-04-26T07:17:13.336Z,58.40
2023-04-26T07:18:13.371Z,58.64
2023-04-26T07:19:13.313Z,58.52
2023-04-26T07:20:13.325Z,58.62
2023-04-26T07:21:13.292Z,58.62
2023-04-26T07:22:13.422Z,58.16
2023-04-26T07:23:13.303Z,57.86
2023-04-26T07:24:13.260Z,57.95
2023-04-26T07:25:13.264Z,57.52
2023-04-26T07:26:13.261Z,57.37
2023-04-26T07:27:13.233Z,57.05
2023-04-26T07:28:13.222Z,56.88
2023-04-26T07:29:13.207Z,56.38
2023-04-26T07:30:13.206Z,55.94
2023-04-26T07:31:13.199Z,55.53
2023-04-26T07:32:13.192Z,55.01
2023-04-26T07:33:13.231Z,54.85
2023-04-26T07:34:13.171Z,55.05
2023-04-26T07:35:13.150Z,54.84
2023-04-26T07:36:13.132Z,54.54
2023-04-26T07:37:13.141Z,54.29
2023-04-26T07:38:13.106Z,54.41
2023-04-26T07:39:13.097Z,53.49
2023-04-26T07:40:13.126Z,53.46
2023-04-26T07:41:13.137Z,53.88
2023-04-26T07:42:13.061Z,54.34
2023-04-26T07:43:13.061Z,54.80
2023-04-26T07:44:13.039Z,53.97
2023-04-26T07:45:13.054Z,54.23
2023-04-26T07:46:13.061Z,53.79
2023-04-26T07:47:13.054Z,54.28
2023-04-26T07:48:13.020Z,53.99
2023-04-26T07:49:12.993Z,53.63
2023-04-26T07:50:13.029Z,52.91
2023-04-26T07:51:12.963Z,52.76
2023-04-26T07:52:12.954Z,52.77
2023-04-26T07:53:12.953Z,53.05
2023-04-26T07:54:12.968Z,52.65
2023-04-26T07:55:12.939Z,53.15
2023-04-26T07:56:12.918Z,52.79
2023-04-26T07:57:12.898Z,53.20
2023-04-26T07:58:12.896Z,52.46
2023-04-26T07:59:12.879Z,52.38
2023-04-26T08:00:12.902Z,52.75
2023-04-26T08:01:13.722Z,52.58
2023-04-26T08:02:12.929Z,52.62
2023-04-26T08:03:13.060Z,52.11
2023-04-26T08:04:12.963Z,52.20
2023-04-26T08:05:13.005Z,52.20
2023-04-26T08:06:12.961Z,51.94
2023-04-26T08:07:12.810Z,52.20
2023-04-26T08:08:12.795Z,52.49
2023-04-26T08:09:12.773Z,52.75
2023-04-26T08:10:12.824Z,53.11
2023-04-26T08:11:12.744Z,53.09
2023-04-26T08:12:12.799Z,52.79
2023-04-26T08:13:12.725Z,52.42
2023-04-26T08:14:12.722Z,52.65
2023-04-26T08:15:12.724Z,52.82
2023-04-26T08:16:12.815Z,53.03
2023-04-26T08:17:12.739Z,53.00
2023-04-26T08:18:12.782Z,52.83
2023-04-26T08:19:12.669Z,52.80
2023-04-26T08:20:12.675Z,52.74
2023-04-26T08:21:12.640Z,52.41
2023-04-26T08:22:12.646Z,52.14
2023-04-26T08:23:12.656Z,51.94
2023-04-26T08:24:12.612Z,51.51
2023-04-26T08:25:12.603Z,51.25
2023-04-26T08:26:12.604Z,50.87
2023-04-26T08:27:12.571Z,49.90
2023-04-26T08:28:12.569Z,49.70
2023-04-26T08:29:12.573Z,49.96
2023-04-26T08:30:12.558Z,49.47
2023-04-26T08:31:12.558Z,48.98
2023-04-26T08:32:12.532Z,49.13
2023-04-26T08:33:12.520Z,49.28
2023-04-26T08:34:12.497Z,49.16
2023-04-26T08:35:12.525Z,49.24
2023-04-26T08:36:12.506Z,48.98
2023-04-26T08:37:12.469Z,48.84
2023-04-26T08:38:12.486Z,48.28
2023-04-26T08:39:12.519Z,48.54
2023-04-26T08:40:12.471Z,48.97
2023-04-26T08:41:12.420Z,49.21
2023-04-26T08:42:12.407Z,48.94
2023-04-26T08:43:12.416Z,48.56
2023-04-26T08:44:12.382Z,48.77
2023-04-26T08:45:12.395Z,48.61
2023-04-26T08:46:12.444Z,48.43
2023-04-26T08:47:12.366Z,48.46
2023-04-26T08:48:12.368Z,48.28
2023-04-26T08:49:12.343Z,48.22
2023-04-26T08:50:12.337Z,48.11
2023-04-26T08:51:12.329Z,47.86
2023-04-26T08:52:12.311Z,48.03
2023-04-26T08:53:12.314Z,48.40
2023-04-26T08:54:12.283Z,48.23
2023-04-26T08:55:12.271Z,48.21
2023-04-26T08:56:12.308Z,48.33
2023-04-26T08:57:12.250Z,48.24
2023-04-26T08:58:12.232Z,48.40
2023-04-26T08:59:14.589Z,48.53
2023-04-26T09:00:12.221Z,48.65
2023-04-26T09:01:12.263Z,48.58
2023-04-26T09:02:12.328Z,48.54
2023-04-26T09:03:12.243Z,48.62
2023-04-26T09:04:12.336Z,48.52
2023-04-26T09:05:12.274Z,48.66
2023-04-26T09:06:12.190Z,48.97
2023-04-26T09:07:12.136Z,49.25
2023-04-26T09:08:12.127Z,49.56
2023-04-26T09:09:12.147Z,49.87
2023-04-26T09:10:12.110Z,50.12
2023-04-26T09:11:12.123Z,50.06
2023-04-26T09:12:12.082Z,49.89
2023-04-26T09:13:12.095Z,49.32
2023-04-26T09:14:12.082Z,49.08
2023-04-26T09:15:12.143Z,49.25
2023-04-26T09:16:12.099Z,49.21
2023-04-26T09:17:12.066Z,49.47
2023-04-26T09:18:12.019Z,49.66
2023-04-26T09:19:12.025Z,49.67
2023-04-26T09:20:12.013Z,49.81
2023-04-26T09:21:11.995Z,50.27
2023-04-26T09:22:11.995Z,50.46
2023-04-26T09:23:11.970Z,50.09
2023-04-26T09:24:11.964Z,49.93
2023-04-26T09:25:11.950Z,49.89
2023-04-26T09:26:11.959Z,49.46
2023-04-26T09:27:11.925Z,49.40
2023-04-26T09:28:11.923Z,49.68
2023-04-26T09:29:11.901Z,50.07
2023-04-26T09:30:11.898Z,50.29
2023-04-26T09:31:11.909Z,50.23
2023-04-26T09:32:11.872Z,49.99
2023-04-26T09:33:11.947Z,50.06
2023-04-26T09:34:11.872Z,50.30
2023-04-26T09:35:11.857Z,50.45
2023-04-26T09:36:11.880Z,50.58
2023-04-26T09:37:11.820Z,50.52
2023-04-26T09:38:13.028Z,50.43
2023-04-26T09:39:11.823Z,50.56
2023-04-26T09:40:11.780Z,50.22
2023-04-26T09:41:11.796Z,50.40
2023-04-26T09:42:11.772Z,50.26
2023-04-26T09:43:11.818Z,50.08
2023-04-26T09:44:11.777Z,49.90
2023-04-26T09:45:11.732Z,49.66
2023-04-26T09:46:11.802Z,49.62
2023-04-26T09:47:11.925Z,49.34
2023-04-26T09:48:11.725Z,48.72
2023-04-26T09:49:11.690Z,48.44
2023-04-26T09:50:11.676Z,47.63
2023-04-26T09:51:11.697Z,46.94
2023-04-26T09:52:11.663Z,46.60
2023-04-26T09:53:11.634Z,46.47
2023-04-26T09:54:11.631Z,46.68
2023-04-26T09:55:16.412Z,46.79
2023-04-26T09:56:12.629Z,46.75
2023-04-26T09:57:11.596Z,46.84
2023-04-26T09:58:11.589Z,46.90
2023-04-26T09:59:11.589Z,46.73
2023-04-26T10:00:11.570Z,46.30
2023-04-26T10:01:11.638Z,46.46
2023-04-26T10:02:11.569Z,46.65
2023-04-26T10:03:11.649Z,46.89
2023-04-26T10:04:11.589Z,46.94
2023-04-26T10:05:11.544Z,46.94
2023-04-26T10:06:11.496Z,46.64
2023-04-26T10:07:11.519Z,46.35
2023-04-26T10:08:11.506Z,46.53
2023-04-26T10:09:11.479Z,46.69
2023-04-26T10:10:11.489Z,46.95
2023-04-26T10:11:11.482Z,47.40
2023-04-26T10:12:11.476Z,47.77
2023-04-26T10:13:11.415Z,48.00
2023-04-26T10:14:11.426Z,48.11
2023-04-26T10:15:11.419Z,47.85
2023-04-26T10:16:11.415Z,47.58
2023-04-26T10:17:11.388Z,47.33
2023-04-26T10:18:11.516Z,47.29
2023-04-26T10:19:11.357Z,47.12
2023-04-26T10:20:11.350Z,47.18
2023-04-26T10:21:11.427Z,47.40
2023-04-26T10:22:11.337Z,47.27
2023-04-26T10:23:11.335Z,47.52
2023-04-26T10:24:11.308Z,47.38
2023-04-26T10:25:11.314Z,47.14
2023-04-26T10:26:11.313Z,47.06
2023-04-26T10:27:11.297Z,47.28
2023-04-26T10:28:11.266Z,46.93
2023-04-26T10:29:11.251Z,46.19
2023-04-26T10:30:11.265Z,45.22
2023-04-26T10:31:11.276Z,44.55
2023-04-26T10:32:11.264Z,44.57
2023-04-26T10:33:11.217Z,44.67
2023-04-26T10:34:11.987Z,44.58
2023-04-26T10:35:11.190Z,44.57
2023-04-26T10:36:11.194Z,44.33
2023-04-26T10:37:11.206Z,44.43
2023-04-26T10:38:11.167Z,44.46
2023-04-26T10:39:11.171Z,44.35
2023-04-26T10:40:11.139Z,44.63
2023-04-26T10:41:11.143Z,44.71
2023-04-26T10:42:11.163Z,44.63
2023-04-26T10:43:11.108Z,44.28
2023-04-26T10:44:11.091Z,44.46
2023-04-26T10:45:11.082Z,44.50
2023-04-26T10:46:11.113Z,44.75
2023-04-26T10:47:11.087Z,44.79
2023-04-26T10:48:11.056Z,44.67
2023-04-26T10:49:11.046Z,44.62
2023-04-26T10:50:11.065Z,44.44
2023-04-26T10:51:11.045Z,44.23
2023-04-26T10:52:11.049Z,44.24
2023-04-26T10:53:11.003Z,44.16
2023-04-26T10:54:11.046Z,44.39
2023-04-26T10:55:10.979Z,44.51
2023-04-26T10:56:10.987Z,44.72
2023-04-26T10:57:10.980Z,44.84
2023-04-26T10:58:10.943Z,44.98
2023-04-26T10:59:28.462Z,45.17
2023-04-26T11:00:11.919Z,45.36
2023-04-26T11:01:11.025Z,45.62
2023-04-26T11:02:10.948Z,45.74
2023-04-26T11:03:11.009Z,45.75
2023-04-26T11:04:10.961Z,45.65
2023-04-26T11:05:10.891Z,45.67
2023-04-26T11:06:10.859Z,46.09
2023-04-26T11:07:10.867Z,46.04
2023-04-26T11:08:10.913Z,45.58
2023-04-26T11:09:10.823Z,45.22
2023-04-26T11:10:10.884Z,44.93
2023-04-26T11:11:10.858Z,44.83
2023-04-26T11:12:10.808Z,44.91
2023-04-26T11:13:10.789Z,44.32
2023-04-26T11:14:10.777Z,43.15
2023-04-26T11:15:10.762Z,42.36
2023-04-26T11:16:10.817Z,41.69
2023-04-26T11:17:10.775Z,41.32
2023-04-26T11:18:10.728Z,41.23
2023-04-26T11:19:10.733Z,41.56
2023-04-26T11:20:10.717Z,41.91
2023-04-26T11:21:10.728Z,41.59
2023-04-26T11:22:10.698Z,41.30
2023-04-26T11:23:10.675Z,41.28
2023-04-26T11:24:10.743Z,41.41
2023-04-26T11:25:10.710Z,41.91
2023-04-26T11:26:10.642Z,42.45
2023-04-26T11:27:10.671Z,42.83
2023-04-26T11:28:10.641Z,43.28
2023-04-26T11:29:10.625Z,43.64
2023-04-26T11:30:10.600Z,44.04
2023-04-26T11:31:10.604Z,44.15
2023-04-26T11:32:10.590Z,44.22
2023-04-26T11:33:10.623Z,44.24
2023-04-26T11:34:10.555Z,44.40
2023-04-26T11:35:10.551Z,44.45
2023-04-26T11:36:10.579Z,44.28
2023-04-26T11:37:10.533Z,44.47
2023-04-26T11:38:10.533Z,44.66
2023-04-26T11:39:11.568Z,44.53
2023-04-26T11:40:10.494Z,44.53
2023-04-26T11:41:10.486Z,44.60
2023-04-26T11:42:10.505Z,44.45
2023-04-26T11:43:10.457Z,44.44
2023-04-26T11:44:10.472Z,44.40
2023-04-26T11:45:10.446Z,44.25
2023-04-26T11:46:10.606Z,44.26
2023-04-26T11:47:10.499Z,44.49
2023-04-26T11:48:10.516Z,44.68
2023-04-26T11:49:10.430Z,44.69
2023-04-26T11:50:10.405Z,44.67
2023-04-26T11:51:10.376Z,44.63
2023-04-26T11:52:10.361Z,44.30
2023-04-26T11:53:10.349Z,44.37
2023-04-26T11:54:10.363Z,44.06
2023-04-26T11:55:10.355Z,44.07
2023-04-26T11:56:10.334Z,43.97
2023-04-26T11:57:10.331Z,44.12
2023-04-26T11:58:10.292Z,44.39
2023-04-26T11:59:10.280Z,44.55
2023-04-26T12:00:10.319Z,44.66
2023-04-26T12:01:10.278Z,44.69
2023-04-26T12:02:10.352Z,44.67
2023-04-26T12:03:10.517Z,44.75
2023-04-26T12:04:10.405Z,44.87
2023-04-26T12:05:10.370Z,44.65
2023-04-26T12:06:10.241Z,44.46
2023-04-26T12:07:10.196Z,44.24
2023-04-26T12:08:10.228Z,44.10
2023-04-26T12:09:10.190Z,44.03
2023-04-26T12:10:10.162Z,44.18
2023-04-26T12:11:10.155Z,44.43
2023-04-26T12:12:10.202Z,44.57
2023-04-26T12:13:10.169Z,44.72
2023-04-26T12:14:10.386Z,44.72
2023-04-26T12:15:10.117Z,44.37
2023-04-26T12:16:22.395Z,44.12
2023-04-26T12:17:11.136Z,43.52
2023-04-26T12:18:10.673Z,43.14
2023-04-26T12:19:10.071Z,42.69
2023-04-26T12:20:10.100Z,42.58
2023-04-26T12:21:10.046Z,42.42
2023-04-26T12:22:10.098Z,42.43
2023-04-26T12:23:10.076Z,42.58
2023-04-26T12:24:10.020Z,42.82
2023-04-26T12:25:09.993Z,42.93
2023-04-26T12:26:09.999Z,42.89
2023-04-26T12:27:09.984Z,42.87
2023-04-26T12:28:10.334Z,43.16
2023-04-26T12:29:09.958Z,43.28
2023-04-26T12:30:09.963Z,43.38
2023-04-26T12:31:10.018Z,43.55
2023-04-26T12:32:09.973Z,43.82
2023-04-26T12:33:17.243Z,43.79
2023-04-26T12:34:10.902Z,43.72
2023-04-26T12:35:09.941Z,43.80
2023-04-26T12:36:09.889Z,43.74
2023-04-26T12:37:09.871Z,43.83
2023-04-26T12:38:09.924Z,44.09
2023-04-26T12:39:09.867Z,44.23
2023-04-26T12:40:09.846Z,44.27
2023-04-26T12:41:09.841Z,44.32
2023-04-26T12:42:09.843Z,44.49
2023-04-26T12:43:09.804Z,44.54
2023-04-26T12:44:09.817Z,44.28
2023-04-26T12:45:09.792Z,44.14
2023-04-26T12:46:09.813Z,44.20
2023-04-26T12:47:09.771Z,44.15
2023-04-26T12:48:09.869Z,44.12
2023-04-26T12:49:09.822Z,44.34
2023-04-26T12:50:09.744Z,44.49
2023-04-26T12:51:09.721Z,44.51
2023-04-26T12:52:09.717Z,44.48
2023-04-26T12:53:09.769Z,44.03
2023-04-26T12:54:09.698Z,43.71